Time;durP1;ratioP1;P1;durP2;ratioP2;P2;SDS_P1;SDS_P2;PMS_P1;PMS_P2;Temp;Humidity;BMP_temperature;BMP_pressure;BME280_temperature;BME280_humidity;BME280_pressure;Samples;Min_cycle;Max_cycle;Signal;HPM_P1;HPM_P2
2022/03/02 00:02:02;;;;;;;19.50;2.80;;;20.70;97.90;;;;;;4992750;28;20044;-61
2022/03/02 00:04:29;;;;;;;19.23;3.78;;;20.60;97.90;;;;;;4992448;28;20026;-61
2022/03/02 00:06:57;;;;;;;31.17;3.28;;;20.60;98.10;;;;;;5008618;28;20080;-61
2022/03/02 00:09:24;;;;;;;17.50;3.25;;;20.60;98.10;;;;;;5012045;28;20125;-61
2022/03/02 00:11:51;;;;;;;28.98;3.85;;;20.70;98.30;;;;;;5012111;28;20092;-61
2022/03/02 00:14:19;;;;;;;21.55;3.20;;;20.70;98.30;;;;;;5011758;28;20060;-62
2022/03/02 00:16:46;;;;;;;29.35;3.70;;;20.70;98.30;;;;;;5011620;28;20034;-61
2022/03/02 00:19:13;;;;;;;19.15;3.85;;;20.70;98.30;;;;;;5011723;28;20124;-60
2022/03/02 00:21:40;;;;;;;24.17;3.78;;;20.60;98.40;;;;;;5011128;28;20479;-61
2022/03/02 00:24:08;;;;;;;23.00;3.40;;;20.70;98.40;;;;;;5012102;28;20353;-61
2022/03/02 00:26:35;;;;;;;24.38;4.75;;;20.70;98.30;;;;;;5012321;28;20037;-60
2022/03/02 00:29:02;;;;;;;41.13;7.53;;;20.70;98.40;;;;;;5010743;28;20037;-60
2022/03/02 00:31:30;;;;;;;34.35;4.63;;;20.70;98.50;;;;;;5011865;28;20129;-60
2022/03/02 00:33:57;;;;;;;24.95;3.40;;;20.80;98.50;;;;;;5011094;28;20113;-59
2022/03/02 00:36:24;;;;;;;37.00;5.75;;;20.80;98.50;;;;;;5011650;28;20018;-60
2022/03/02 00:38:51;;;;;;;33.65;3.90;;;20.80;98.60;;;;;;5012327;28;20361;-60
2022/03/02 00:41:19;;;;;;;35.95;4.72;;;20.90;98.60;;;;;;5010419;28;20061;-61
2022/03/02 00:43:47;;;;;;;35.80;4.78;;;20.90;98.60;;;;;;5011084;28;20101;-61
2022/03/02 00:46:15;;;;;;;28.48;4.60;;;20.90;98.60;;;;;;5009727;28;20472;-61
2022/03/02 00:48:43;;;;;;;21.67;2.97;;;20.90;98.60;;;;;;5011760;28;20053;-61
2022/03/02 00:51:10;;;;;;;23.98;3.13;;;20.80;98.30;;;;;;5011532;28;20032;-61
2022/03/02 00:53:38;;;;;;;17.48;2.80;;;20.70;98.30;;;;;;4994393;28;20026;-60
2022/03/02 00:56:05;;;;;;;15.85;2.67;;;20.50;98.20;;;;;;5011386;28;20508;-60
2022/03/02 00:58:33;;;;;;;19.55;2.67;;;20.50;98.30;;;;;;5011463;28;20426;-60
2022/03/02 01:01:00;;;;;;;11.77;1.98;;;20.40;98.20;;;;;;5010753;28;20060;-60
2022/03/02 01:03:30;;;;;;;12.40;1.95;;;20.30;98.10;;;;;;5011468;28;20046;-60
2022/03/02 01:05:58;;;;;;;16.25;2.40;;;20.30;98.20;;;;;;5011251;28;20048;-60
2022/03/02 01:08:25;;;;;;;18.63;2.70;;;20.30;98.20;;;;;;5011126;28;20057;-60
2022/03/02 01:10:52;;;;;;;16.85;2.95;;;20.30;98.30;;;;;;5011314;28;20057;-60
2022/03/02 01:13:19;;;;;;;20.38;3.25;;;20.40;98.50;;;;;;5010833;28;20076;-61
2022/03/02 01:15:47;;;;;;;22.98;3.63;;;20.40;98.50;;;;;;5010647;28;20018;-61
2022/03/02 01:18:15;;;;;;;24.00;3.80;;;20.50;98.60;;;;;;5010848;28;20033;-61
2022/03/02 01:20:42;;;;;;;24.30;4.78;;;20.60;98.70;;;;;;5010974;28;20488;-61
2022/03/02 01:23:09;;;;;;;25.13;4.13;;;20.60;98.70;;;;;;5011220;28;20026;-61
2022/03/02 01:25:36;;;;;;;25.73;4.00;;;20.70;98.70;;;;;;5011194;28;20033;-61
2022/03/02 01:28:04;;;;;;;19.08;3.63;;;20.80;98.80;;;;;;5011087;28;20014;-61
2022/03/02 01:30:31;;;;;;;21.50;3.33;;;20.80;98.80;;;;;;5011313;28;20133;-61
2022/03/02 01:32:58;;;;;;;17.45;3.08;;;20.80;98.80;;;;;;5010831;28;20022;-60
2022/03/02 01:35:25;;;;;;;28.13;4.53;;;20.80;98.80;;;;;;5011101;28;20106;-61
2022/03/02 01:37:53;;;;;;;17.48;3.35;;;20.80;98.90;;;;;;5010950;28;20052;-61
2022/03/02 01:40:20;;;;;;;24.08;4.75;;;20.90;98.90;;;;;;5010692;28;20113;-61
2022/03/02 01:42:47;;;;;;;23.45;3.17;;;20.90;98.90;;;;;;5009686;28;20034;-61
2022/03/02 01:45:15;;;;;;;23.83;3.67;;;20.90;98.90;;;;;;5010764;28;20550;-61
2022/03/02 01:47:42;;;;;;;28.63;4.10;;;20.90;98.90;;;;;;5011139;28;20033;-61
2022/03/02 01:50:10;;;;;;;27.50;4.75;;;20.90;98.90;;;;;;5010984;28;20447;-61
2022/03/02 01:52:38;;;;;;;30.55;5.03;;;21.00;99.00;;;;;;5010610;28;20029;-61
2022/03/02 01:55:05;;;;;;;14.38;2.80;;;21.00;99.00;;;;;;5013411;28;20037;-61
2022/03/02 01:57:32;;;;;;;20.25;3.90;;;21.00;99.00;;;;;;5014669;28;20030;-60
2022/03/02 02:00:00;;;;;;;19.95;3.50;;;21.00;98.90;;;;;;5014664;28;20029;-61
2022/03/02 02:02:27;;;;;;;26.52;3.28;;;21.00;98.90;;;;;;5013400;28;20046;-61
2022/03/02 02:04:54;;;;;;;23.90;3.65;;;21.00;99.00;;;;;;5014054;28;20025;-60
2022/03/02 02:07:22;;;;;;;28.27;5.18;;;21.00;99.00;;;;;;5014329;28;20034;-61
2022/03/02 02:09:50;;;;;;;23.52;4.35;;;21.00;99.00;;;;;;5014699;28;20045;-61
2022/03/02 02:12:17;;;;;;;36.67;4.97;;;21.00;99.00;;;;;;5013260;28;20026;-60
2022/03/02 02:14:44;;;;;;;36.33;4.28;;;20.90;99.00;;;;;;5014102;28;20026;-62
2022/03/02 02:17:11;;;;;;;26.20;3.80;;;21.00;99.00;;;;;;5013983;28;20030;-61
2022/03/02 02:19:39;;;;;;;23.95;4.47;;;20.90;99.00;;;;;;5014136;28;20014;-61
2022/03/02 02:22:06;;;;;;;27.60;4.45;;;21.10;99.10;;;;;;5014081;28;20541;-61
2022/03/02 02:24:33;;;;;;;28.33;4.05;;;21.10;99.10;;;;;;5013974;28;20045;-61
2022/03/02 02:27:01;;;;;;;34.47;4.88;;;21.20;99.20;;;;;;5014071;28;20040;-61
2022/03/02 02:29:30;;;;;;;27.73;4.30;;;21.20;99.20;;;;;;4996646;28;20026;-60
2022/03/02 02:31:57;;;;;;;22.42;4.40;;;21.20;99.20;;;;;;5014048;28;20034;-61
2022/03/02 02:34:25;;;;;;;27.23;3.45;;;21.20;99.10;;;;;;5014287;28;20045;-60
2022/03/02 02:36:52;;;;;;;26.38;3.63;;;21.00;98.90;;;;;;5012784;28;20026;-60
2022/03/02 02:39:19;;;;;;;34.30;3.90;;;20.90;98.80;;;;;;5014258;28;20018;-60
2022/03/02 02:41:46;;;;;;;20.10;3.55;;;20.90;98.80;;;;;;5012081;28;20026;-59
2022/03/02 02:44:14;;;;;;;25.27;3.63;;;21.00;98.90;;;;;;5013490;28;20080;-60
2022/03/02 02:46:45;;;;;;;18.15;2.95;;;21.00;99.00;;;;;;5013767;28;20022;-60
2022/03/02 02:49:12;;;;;;;19.98;3.22;;;20.90;98.60;;;;;;5012832;28;20022;-60
2022/03/02 02:51:39;;;;;;;22.45;3.05;;;20.80;98.50;;;;;;5013908;28;20045;-60
2022/03/02 02:54:06;;;;;;;16.02;2.15;;;20.70;98.50;;;;;;5013847;28;20040;-60
2022/03/02 02:56:34;;;;;;;17.48;2.20;;;20.70;98.30;;;;;;5012943;28;20420;-60
2022/03/02 02:59:01;;;;;;;14.90;2.33;;;20.60;98.20;;;;;;5013558;28;20040;-60
2022/03/02 03:01:29;;;;;;;13.25;3.05;;;20.30;97.30;;;;;;5013530;28;20028;-60
2022/03/02 03:03:56;;;;;;;13.20;2.45;;;20.30;97.90;;;;;;5014013;28;20040;-59
2022/03/02 03:06:24;;;;;;;26.15;3.08;;;20.30;97.90;;;;;;5012720;28;20026;-62
2022/03/02 03:08:51;;;;;;;26.83;3.00;;;20.40;98.00;;;;;;5013225;28;20049;-61
2022/03/02 03:11:19;;;;;;;18.40;3.67;;;20.30;98.10;;;;;;5011446;28;20034;-60
2022/03/02 03:13:46;;;;;;;23.85;5.00;;;20.40;98.20;;;;;;5012175;28;20041;-60
2022/03/02 03:16:14;;;;;;;27.05;3.63;;;20.40;98.00;;;;;;5013233;28;20079;-60
2022/03/02 03:18:41;;;;;;;29.45;4.32;;;20.50;98.10;;;;;;5013253;28;20499;-60
2022/03/02 03:21:08;;;;;;;32.30;4.22;;;20.50;98.20;;;;;;5013205;28;20514;-59
2022/03/02 03:23:35;;;;;;;33.53;5.35;;;20.60;98.30;;;;;;5012996;28;20033;-59
2022/03/02 03:26:02;;;;;;;30.08;4.60;;;20.70;98.30;;;;;;5012907;28;20113;-59
2022/03/02 03:28:30;;;;;;;29.45;4.75;;;20.60;98.20;;;;;;5013018;28;20492;-60
2022/03/02 03:30:57;;;;;;;22.77;4.07;;;20.60;98.10;;;;;;5013086;28;20025;-60
2022/03/02 03:33:25;;;;;;;18.95;3.42;;;20.70;98.10;;;;;;5012840;28;20022;-60
2022/03/02 03:35:52;;;;;;;19.00;3.45;;;20.60;98.00;;;;;;5011087;28;20018;-60
2022/03/02 03:38:19;;;;;;;23.52;3.13;;;20.60;98.00;;;;;;5012478;28;20034;-60
2022/03/02 03:40:46;;;;;;;31.63;4.00;;;20.60;98.10;;;;;;5012841;28;20048;-60
2022/03/02 03:43:13;;;;;;;28.55;4.28;;;20.60;98.10;;;;;;5012443;28;20034;-60
2022/03/02 03:45:41;;;;;;;32.53;6.03;;;20.60;98.10;;;;;;5012516;28;20607;-60
2022/03/02 03:48:09;;;;;;;26.45;4.03;;;20.60;98.20;;;;;;5012656;28;20045;-60
2022/03/02 03:50:36;;;;;;;34.47;4.50;;;20.70;98.40;;;;;;5012371;28;20032;-60
2022/03/02 03:53:04;;;;;;;32.15;4.32;;;20.70;98.40;;;;;;5012452;28;20026;-60
2022/03/02 03:55:31;;;;;;;29.48;5.18;;;20.70;98.50;;;;;;5012537;28;20491;-60
2022/03/02 03:57:58;;;;;;;27.17;3.70;;;20.80;98.50;;;;;;5012400;28;20034;-60
2022/03/02 04:00:25;;;;;;;31.08;5.03;;;20.80;98.50;;;;;;5011182;28;20022;-59
2022/03/02 04:02:52;;;;;;;29.90;3.90;;;20.80;98.50;;;;;;5011873;28;20136;-60
2022/03/02 04:05:19;;;;;;;29.63;4.47;;;20.70;98.40;;;;;;5012163;28;20054;-60
2022/03/02 04:07:47;;;;;;;29.33;4.30;;;20.70;98.40;;;;;;5012446;28;20033;-60
2022/03/02 04:10:14;;;;;;;28.83;4.35;;;20.70;98.40;;;;;;5011747;28;20050;-60
2022/03/02 04:12:42;;;;;;;37.90;6.13;;;20.70;98.50;;;;;;5010931;28;20053;-60
2022/03/02 04:15:10;;;;;;;29.10;4.97;;;20.70;98.60;;;;;;5011676;28;20032;-60
2022/03/02 04:17:37;;;;;;;33.80;4.53;;;20.80;98.60;;;;;;5010061;28;20029;-60
2022/03/02 04:20:05;;;;;;;39.72;6.03;;;20.80;98.60;;;;;;5011932;28;20068;-60
2022/03/02 04:22:33;;;;;;;33.40;4.15;;;20.70;98.60;;;;;;5010785;28;20061;-60
2022/03/02 04:25:00;;;;;;;29.38;3.70;;;20.80;98.60;;;;;;5012065;28;20064;-61
2022/03/02 04:27:27;;;;;;;24.98;3.55;;;20.60;98.50;;;;;;5011982;28;20388;-60
2022/03/02 04:29:54;;;;;;;29.15;4.10;;;20.60;98.50;;;;;;5011639;28;20109;-60
2022/03/02 04:32:22;;;;;;;29.70;3.65;;;20.60;98.60;;;;;;5011657;28;20029;-60
2022/03/02 04:34:49;;;;;;;31.08;5.07;;;20.60;98.60;;;;;;5010328;28;20033;-60
2022/03/02 04:37:16;;;;;;;37.95;5.35;;;20.70;98.70;;;;;;5011602;28;20334;-60
2022/03/02 04:39:43;;;;;;;37.80;5.15;;;20.70;98.80;;;;;;5011478;28;20056;-59
2022/03/02 04:42:11;;;;;;;31.38;4.57;;;20.70;98.80;;;;;;5010871;28;20091;-60
2022/03/02 04:44:38;;;;;;;47.38;7.25;;;20.80;98.90;;;;;;5011242;28;20129;-61
2022/03/02 04:47:05;;;;;;;27.67;4.50;;;20.80;98.90;;;;;;5010954;28;20388;-60
2022/03/02 04:49:32;;;;;;;31.35;4.93;;;20.80;98.90;;;;;;5010683;28;20069;-61
2022/03/02 04:51:59;;;;;;;38.92;4.95;;;20.80;98.90;;;;;;5010670;28;20030;-60
2022/03/02 04:57:12;;;;;;;40.58;5.32;;;20.80;98.90;;;;;;5011243;28;20041;-60
2022/03/02 04:59:39;;;;;;;35.10;4.95;;;20.70;98.80;;;;;;5011181;28;20503;-60
2022/03/02 05:02:06;;;;;;;29.48;3.65;;;20.70;98.90;;;;;;5011137;28;20049;-60
2022/03/02 05:04:33;;;;;;;29.98;3.50;;;20.60;98.80;;;;;;5011480;28;20490;-60
2022/03/02 05:07:00;;;;;;;29.85;3.80;;;20.60;98.80;;;;;;5011299;28;20443;-60
2022/03/02 05:09:28;;;;;;;26.13;3.55;;;20.60;98.90;;;;;;5010716;28;20046;-60
2022/03/02 05:11:55;;;;;;;18.92;2.70;;;20.60;98.80;;;;;;5005427;28;20088;-61
2022/03/02 05:14:22;;;;;;;21.65;3.03;;;20.50;98.70;;;;;;5002213;28;20458;-62
2022/03/02 05:16:49;;;;;;;20.70;3.50;;;20.40;98.60;;;;;;4990978;28;20057;-63
2022/03/02 05:19:16;;;;;;;23.58;3.80;;;20.40;98.70;;;;;;5009686;28;20026;-65
2022/03/02 05:21:44;;;;;;;26.27;3.25;;;20.50;98.80;;;;;;5010511;28;20038;-62
2022/03/02 05:24:11;;;;;;;22.40;3.28;;;20.50;98.90;;;;;;5010114;28;20029;-63
2022/03/02 05:26:38;;;;;;;20.08;2.67;;;20.50;98.90;;;;;;4994118;28;20113;-64
2022/03/02 05:29:05;;;;;;;25.63;4.95;;;20.40;98.80;;;;;;4998735;28;20037;-64
2022/03/02 05:31:32;;;;;;;20.90;3.13;;;20.50;98.90;;;;;;4994102;28;20026;-62
2022/03/02 05:34:00;;;;;;;29.77;4.32;;;20.50;98.80;;;;;;4994566;28;20023;-62
2022/03/02 05:36:27;;;;;;;24.77;4.00;;;20.50;98.90;;;;;;4995248;28;20046;-62
2022/03/02 05:38:55;;;;;;;28.15;4.22;;;20.50;98.90;;;;;;5015085;28;20116;-62
2022/03/02 05:41:22;;;;;;;24.52;4.07;;;20.60;98.90;;;;;;5013466;28;20145;-65
2022/03/02 05:43:49;;;;;;;27.25;3.75;;;20.60;99.00;;;;;;5013697;28;20057;-64
2022/03/02 05:46:17;;;;;;;31.38;3.85;;;20.60;99.00;;;;;;5001610;28;20029;-64
2022/03/02 05:48:44;;;;;;;28.20;4.07;;;20.70;99.00;;;;;;4995288;28;20053;-64
2022/03/02 05:51:11;;;;;;;27.05;3.55;;;20.60;98.90;;;;;;4994117;28;20563;-66
2022/03/02 05:53:38;;;;;;;33.15;4.50;;;20.60;99.00;;;;;;5004048;28;20516;-63
2022/03/02 05:56:06;;;;;;;26.55;3.75;;;20.60;99.00;;;;;;5013782;28;20029;-65
2022/03/02 05:58:33;;;;;;;44.33;4.72;;;20.60;99.00;;;;;;5013414;28;20022;-64
2022/03/02 06:01:01;;;;;;;36.05;4.15;;;20.60;99.00;;;;;;5002044;28;20026;-64
2022/03/02 06:03:28;;;;;;;26.17;4.05;;;20.60;99.00;;;;;;4995000;28;20135;-64
2022/03/02 06:05:56;;;;;;;28.35;4.15;;;20.70;99.00;;;;;;5001344;28;20415;-65
2022/03/02 06:08:24;;;;;;;37.38;5.32;;;20.70;99.10;;;;;;4996745;28;20033;-65
2022/03/02 06:10:51;;;;;;;35.20;3.85;;;20.70;99.10;;;;;;4994187;28;20034;-65
2022/03/02 06:13:19;;;;;;;35.63;5.50;;;20.70;99.10;;;;;;4995096;28;20117;-64
2022/03/02 06:15:46;;;;;;;29.20;4.60;;;20.70;99.10;;;;;;5001906;28;20162;-64
2022/03/02 06:18:13;;;;;;;37.40;4.78;;;20.70;99.10;;;;;;4996587;28;20053;-65
2022/03/02 06:20:44;;;;;;;33.40;5.90;;;20.80;99.10;;;;;;5006508;28;20443;-65
2022/03/02 06:23:11;;;;;;;41.08;7.50;;;20.70;99.10;;;;;;5007384;28;20041;-64
2022/03/02 06:25:39;;;;;;;47.47;7.55;;;20.80;99.20;;;;;;5006823;28;20076;-64
2022/03/02 06:28:06;;;;;;;40.03;5.57;;;20.80;99.20;;;;;;4996257;28;20472;-66
2022/03/02 06:30:34;;;;;;;35.08;4.88;;;20.80;99.20;;;;;;5007149;28;20145;-64
2022/03/02 06:33:01;;;;;;;38.33;5.60;;;20.80;99.10;;;;;;5005338;28;20085;-65
2022/03/02 06:35:28;;;;;;;29.02;4.72;;;20.80;99.10;;;;;;5016248;28;20096;-64
2022/03/02 06:37:56;;;;;;;29.77;4.45;;;20.70;99.10;;;;;;5012944;28;20105;-65
2022/03/02 06:40:23;;;;;;;30.58;4.85;;;20.70;99.10;;;;;;4999950;28;20041;-65
2022/03/02 06:42:59;;;;;;;32.88;4.68;;;20.70;99.10;;;;;;5009704;28;20030;-64
2022/03/02 06:45:38;;;;;;;35.22;4.10;;;20.80;99.10;;;;;;5003619;28;20026;-65
2022/03/02 06:48:13;;;;;;;34.20;3.90;;;20.80;99.10;;;;;;5011133;28;20025;-66
2022/03/02 06:50:43;;;;;;;35.65;4.70;;;20.80;99.10;;;;;;4994394;28;20018;-66
2022/03/02 06:53:11;;;;;;;;;;;20.80;99.10;;;;;;5000267;28;20027;-65
2022/03/02 06:55:42;;;;;;;34.75;4.43;;;20.80;99.20;;;;;;5006261;28;19985;-64
2022/03/02 06:58:12;;;;;;;35.38;4.18;;;20.80;99.10;;;;;;5007413;28;20085;-64
2022/03/02 07:00:40;;;;;;;32.50;4.63;;;20.80;99.10;;;;;;4997401;28;20023;-65
2022/03/02 07:03:11;;;;;;;28.55;4.10;;;20.80;99.10;;;;;;5000712;28;20049;-64
2022/03/02 07:05:39;;;;;;;34.85;4.13;;;20.80;99.10;;;;;;5009533;28;20026;-64
2022/03/02 07:08:08;;;;;;;30.20;4.18;;;20.80;99.10;;;;;;5020212;28;20030;-64
2022/03/02 07:10:36;;;;;;;41.10;5.03;;;20.80;99.10;;;;;;5010794;28;20511;-63
2022/03/02 07:13:05;;;;;;;35.03;5.25;;;20.90;99.20;;;;;;5003738;28;20530;-63
2022/03/02 07:15:32;;;;;;;45.80;4.72;;;20.90;99.20;;;;;;5002946;28;20053;-63
2022/03/02 07:18:00;;;;;;;37.13;4.47;;;20.80;99.20;;;;;;5010946;28;20104;-64
2022/03/02 07:20:28;;;;;;;30.90;4.53;;;20.90;99.20;;;;;;5010401;28;20401;-64
2022/03/02 07:22:56;;;;;;;28.55;3.80;;;20.90;99.20;;;;;;5008212;28;20046;-65
2022/03/02 07:25:33;;;;;;;39.13;4.60;;;20.80;99.20;;;;;;4995756;28;20386;-65
2022/03/02 07:28:01;;;;;;;37.80;5.05;;;20.90;99.20;;;;;;4998368;28;20356;-63
2022/03/02 07:30:28;;;;;;;27.52;4.45;;;20.90;99.20;;;;;;4999330;28;20130;-64
2022/03/02 07:32:57;;;;;;;36.30;4.45;;;20.80;99.10;;;;;;5009503;28;20481;-64
2022/03/02 07:35:25;;;;;;;29.23;3.30;;;20.70;99.10;;;;;;5007263;28;20045;-65
2022/03/02 07:37:55;;;;;;;35.67;4.13;;;20.70;99.10;;;;;;5009759;28;20033;-65
2022/03/02 07:40:22;;;;;;;32.63;4.65;;;20.70;99.20;;;;;;4991704;28;20383;-64
2022/03/02 07:42:49;;;;;;;41.00;4.75;;;20.70;99.20;;;;;;5010210;28;20065;-63
2022/03/02 07:45:17;;;;;;;38.50;4.22;;;20.70;99.20;;;;;;5011214;28;20026;-65
2022/03/02 07:47:44;;;;;;;37.83;3.78;;;20.70;99.30;;;;;;5010654;28;20085;-66
2022/03/02 07:50:13;;;;;;;38.72;4.05;;;20.70;99.30;;;;;;5002617;28;20397;-65
2022/03/02 07:52:46;;;;;;;31.65;3.97;;;20.70;99.30;;;;;;5006925;28;20049;-64
2022/03/02 07:55:13;;;;;;;24.60;3.40;;;20.60;99.20;;;;;;5010878;28;20112;-64
2022/03/02 07:57:40;;;;;;;20.92;3.15;;;20.50;99.10;;;;;;5007948;28;20042;-64
2022/03/02 08:00:09;;;;;;;20.33;3.30;;;20.50;99.10;;;;;;5010857;28;20036;-63
2022/03/02 08:02:36;;;;;;;32.53;4.40;;;20.40;99.10;;;;;;4986532;28;20548;-65
2022/03/02 08:05:05;;;;;;;35.38;3.40;;;20.40;99.10;;;;;;5009250;28;20025;-64
2022/03/02 08:07:32;;;;;;;36.13;4.20;;;20.40;99.20;;;;;;5024374;28;20034;-64
2022/03/02 08:09:59;;;;;;;26.50;3.15;;;20.50;99.20;;;;;;5003111;28;20659;-63
2022/03/02 08:12:26;;;;;;;25.35;4.10;;;20.40;99.20;;;;;;4999323;28;20025;-63
2022/03/02 08:14:54;;;;;;;46.70;5.32;;;20.40;99.20;;;;;;5004155;28;20026;-62
2022/03/02 08:17:21;;;;;;;27.20;4.10;;;20.50;99.20;;;;;;4997861;28;20084;-62
2022/03/02 08:19:48;;;;;;;30.90;3.65;;;20.50;99.20;;;;;;5001999;28;20032;-63
2022/03/02 08:22:18;;;;;;;20.85;2.60;;;20.50;99.20;;;;;;5001298;28;20065;-63
2022/03/02 08:24:55;;;;;;;21.42;3.10;;;20.50;99.20;;;;;;5007835;28;20105;-62
2022/03/02 08:27:22;;;;;;;22.33;3.33;;;20.50;99.20;;;;;;5010835;28;20428;-61
2022/03/02 08:29:56;;;;;;;24.73;2.92;;;20.30;99.10;;;;;;5003915;28;20034;-62
2022/03/02 08:32:24;;;;;;;19.67;2.47;;;20.30;99.10;;;;;;5007861;28;20026;-63
2022/03/02 08:34:52;;;;;;;18.85;2.58;;;20.20;99.10;;;;;;5002907;28;20076;-62
2022/03/02 08:37:19;;;;;;;20.33;2.65;;;20.20;99.10;;;;;;5008298;28;20060;-64
2022/03/02 08:39:47;;;;;;;31.83;12.00;;;20.20;99.20;;;;;;4995851;28;20034;-64
2022/03/02 08:42:14;;;;;;;23.88;3.60;;;20.20;99.20;;;;;;5004139;28;20034;-61
2022/03/02 08:44:41;;;;;;;24.63;4.13;;;20.20;99.20;;;;;;5002598;28;20019;-64
2022/03/02 08:47:09;;;;;;;20.27;2.97;;;20.20;99.20;;;;;;5004415;28;20030;-64
2022/03/02 08:49:36;;;;;;;42.90;4.78;;;20.20;99.20;;;;;;5002422;28;20034;-63
2022/03/02 08:52:03;;;;;;;30.38;3.83;;;20.20;99.20;;;;;;5008384;28;20067;-62
2022/03/02 08:54:34;;;;;;;30.58;3.72;;;20.20;99.20;;;;;;5008228;28;20029;-63
2022/03/02 08:57:00;;;;;;;;;;;20.20;99.30;;;;;;4991920;28;20034;-64
2022/03/02 08:59:27;;;;;;;31.98;4.53;;;20.20;99.20;;;;;;4998467;28;19913;-63
2022/03/02 09:01:55;;;;;;;38.47;4.25;;;20.20;99.30;;;;;;4994530;28;20042;-63
2022/03/02 09:04:23;;;;;;;36.78;5.20;;;20.20;99.30;;;;;;4995205;28;20357;-63
2022/03/02 09:06:50;;;;;;;32.38;4.57;;;20.20;99.30;;;;;;5002310;28;20034;-63
2022/03/02 09:09:18;;;;;;;28.58;3.83;;;20.20;99.30;;;;;;4996391;28;20050;-63
2022/03/02 09:11:46;;;;;;;28.38;3.85;;;20.20;99.30;;;;;;5019602;28;20027;-63
2022/03/02 09:14:13;;;;;;;26.05;3.72;;;20.10;99.20;;;;;;4995049;28;20034;-62
2022/03/02 09:16:40;;;;;;;27.08;4.15;;;20.10;99.20;;;;;;5002591;28;20026;-63
2022/03/02 09:19:11;;;;;;;25.17;3.80;;;20.10;99.30;;;;;;5010847;28;20026;-63
2022/03/02 09:21:38;;;;;;;36.03;3.83;;;20.20;99.30;;;;;;5006100;28;20084;-63
2022/03/02 09:24:06;;;;;;;39.47;4.50;;;20.10;99.20;;;;;;5008529;28;20017;-63
2022/03/02 09:26:33;;;;;;;38.50;6.18;;;20.10;99.30;;;;;;5008495;28;20373;-63
2022/03/02 09:29:01;;;;;;;35.47;4.35;;;20.20;99.30;;;;;;4982882;28;20022;-62
2022/03/02 09:31:28;;;;;;;38.55;5.47;;;20.20;99.30;;;;;;4998169;28;20045;-63
2022/03/02 09:33:56;;;;;;;44.03;5.63;;;20.20;99.30;;;;;;5003849;28;20018;-62
2022/03/02 09:36:25;;;;;;;40.38;5.13;;;20.20;99.30;;;;;;5005361;28;20121;-63
2022/03/02 09:38:54;;;;;;;43.53;4.57;;;20.30;99.40;;;;;;4997118;28;20053;-63
2022/03/02 09:41:41;;;;;;;45.50;4.97;;;20.30;99.40;;;;;;4990252;28;20042;-64
2022/03/02 09:44:11;;;;;;;38.92;4.80;;;20.30;99.40;;;;;;5001338;28;20038;-64
2022/03/02 09:46:39;;;;;;;44.20;4.80;;;20.30;99.40;;;;;;5004927;28;20113;-64
2022/03/02 09:49:11;;;;;;;36.75;4.95;;;20.30;99.40;;;;;;5010058;28;20333;-62
2022/03/02 09:51:40;;;;;;;33.67;4.80;;;20.30;99.40;;;;;;4996874;28;20081;-63
2022/03/02 09:54:08;;;;;;;43.15;5.88;;;20.40;99.40;;;;;;4991743;28;20026;-62
2022/03/02 09:56:35;;;;;;;41.78;5.90;;;20.40;99.40;;;;;;4993996;28;20559;-63
2022/03/02 09:59:05;;;;;;;46.05;5.10;;;20.40;99.40;;;;;;5003917;28;20365;-63
2022/03/02 10:01:33;;;;;;;55.63;7.60;;;20.40;99.40;;;;;;5003723;28;20046;-63
2022/03/02 10:04:21;;;;;;;45.67;5.55;;;20.50;99.50;;;;;;4992490;28;20046;-62
2022/03/02 10:06:50;;;;;;;57.35;6.00;;;20.50;99.50;;;;;;4995498;28;20037;-63
2022/03/02 10:09:21;;;;;;;50.38;5.45;;;20.50;99.50;;;;;;5003405;28;20049;-63
2022/03/02 10:11:49;;;;;;;51.50;5.50;;;20.50;99.50;;;;;;5019744;28;20029;-63
2022/03/02 10:14:20;;;;;;;49.88;5.57;;;20.50;99.50;;;;;;5003393;28;20534;-63
2022/03/02 10:16:48;;;;;;;43.88;5.95;;;20.50;99.50;;;;;;5009899;28;20088;-60
2022/03/02 10:19:25;;;;;;;53.17;5.75;;;20.50;99.50;;;;;;5005413;28;20014;-63
2022/03/02 10:22:04;;;;;;;49.40;10.38;;;20.50;99.50;;;;;;5011080;28;20133;-63
2022/03/02 10:24:32;;;;;;;48.47;5.55;;;20.50;99.50;;;;;;5005040;28;20073;-63
2022/03/02 10:27:04;;;;;;;48.53;6.63;;;20.60;99.50;;;;;;5009137;28;20022;-63
2022/03/02 10:29:35;;;;;;;64.22;6.80;;;20.60;99.50;;;;;;5008187;28;20064;-65
2022/03/02 10:32:09;;;;;;;49.33;7.18;;;20.60;99.50;;;;;;5013247;28;20095;-64
2022/03/02 10:34:37;;;;;;;56.50;5.75;;;20.60;99.50;;;;;;5003844;28;20050;-64
2022/03/02 10:37:06;;;;;;;61.88;7.32;;;20.60;99.50;;;;;;5011259;28;20483;-63
2022/03/02 10:40:05;;;;;;;56.75;6.65;;;20.60;99.50;;;;;;5002661;28;20028;-63
2022/03/02 10:42:36;;;;;;;65.73;12.37;;;20.60;99.50;;;;;;5003284;28;20045;-64
2022/03/02 10:45:08;;;;;;;52.53;5.80;;;20.60;99.50;;;;;;5009366;28;20275;-62
2022/03/02 10:47:47;;;;;;;54.42;6.15;;;20.60;99.50;;;;;;5005673;28;20030;-63
2022/03/02 10:50:15;;;;;;;42.47;5.07;;;20.50;99.50;;;;;;5002357;28;20049;-64
2022/03/02 10:52:42;;;;;;;54.33;5.93;;;20.60;99.50;;;;;;5012796;28;20029;-65
2022/03/02 10:55:11;;;;;;;44.88;5.07;;;20.60;99.50;;;;;;4999443;28;20096;-63
2022/03/02 10:57:38;;;;;;;39.70;4.75;;;20.50;99.60;;;;;;5002989;28;20495;-63
2022/03/02 11:00:13;;;;;;;54.53;6.45;;;20.60;99.50;;;;;;4992317;28;20135;-64
2022/03/02 11:02:43;;;;;;;50.25;6.18;;;20.60;99.50;;;;;;5012387;28;20646;-63
2022/03/02 11:05:12;;;;;;;60.05;6.88;;;20.50;99.50;;;;;;4995304;28;20444;-63
2022/03/02 11:07:39;;;;;;;46.67;5.30;;;20.50;99.50;;;;;;5011518;28;20092;-63
2022/03/02 11:10:09;;;;;;;39.38;4.65;;;20.50;99.50;;;;;;5012992;28;20069;-63
2022/03/02 11:12:42;;;;;;;51.85;5.03;;;20.40;99.50;;;;;;5005033;28;20038;-63
2022/03/02 11:15:10;;;;;;;46.90;5.95;;;20.40;99.50;;;;;;5002270;28;20029;-63
2022/03/02 11:17:37;;;;;;;55.88;6.03;;;20.40;99.50;;;;;;5003485;28;20050;-64
2022/03/02 11:20:08;;;;;;;48.05;7.10;;;20.40;99.50;;;;;;5006263;28;20033;-63
2022/03/02 11:22:36;;;;;;;61.25;6.00;;;20.40;99.50;;;;;;5006874;28;20120;-63
2022/03/02 11:25:04;;;;;;;58.13;6.35;;;20.50;99.50;;;;;;5001469;28;20031;-63
2022/03/02 11:27:40;;;;;;;51.17;6.68;;;20.50;99.50;;;;;;5006913;28;20640;-63
2022/03/02 11:30:11;;;;;;;52.42;6.15;;;20.50;99.60;;;;;;5011371;28;20029;-63
2022/03/02 11:32:43;;;;;;;58.38;6.35;;;20.60;99.50;;;;;;5001890;28;20504;-62
2022/03/02 11:35:14;;;;;;;57.60;6.75;;;20.60;99.60;;;;;;5004346;28;20388;-62
2022/03/02 11:37:44;;;;;;;74.03;8.57;;;20.60;99.60;;;;;;5014627;28;20083;-63
2022/03/02 11:40:15;;;;;;;55.88;6.03;;;20.60;99.50;;;;;;5008010;28;20041;-63
2022/03/02 11:42:43;;;;;;;65.60;7.82;;;20.60;99.50;;;;;;5010484;28;20068;-64
2022/03/02 11:45:12;;;;;;;66.07;8.02;;;20.60;99.50;;;;;;5015492;28;20027;-63
2022/03/02 11:47:53;;;;;;;75.82;6.95;;;20.60;99.50;;;;;;5010218;28;20096;-63
2022/03/02 11:50:21;;;;;;;59.33;6.25;;;20.60;99.50;;;;;;5009629;28;20075;-64
2022/03/02 11:52:48;;;;;;;63.47;6.78;;;20.60;99.50;;;;;;5001591;28;20022;-63
2022/03/02 11:55:17;;;;;;;62.72;7.47;;;20.70;99.50;;;;;;5009617;28;20076;-64
2022/03/02 11:57:53;;;;;;;51.65;5.95;;;20.70;99.50;;;;;;5011889;28;20396;-64
2022/03/02 12:00:22;;;;;;;56.17;7.63;;;20.70;99.50;;;;;;5008102;28;20026;-64
2022/03/02 12:02:54;;;;;;;53.40;7.07;;;20.70;99.60;;;;;;5012146;28;20100;-64
2022/03/02 12:05:23;;;;;;;61.13;6.40;;;20.70;99.50;;;;;;5016848;28;20062;-64
2022/03/02 12:08:02;;;;;;;56.88;6.57;;;20.70;99.60;;;;;;5007839;28;20044;-64
2022/03/02 12:10:30;;;;;;;54.03;6.88;;;20.70;99.50;;;;;;5011033;28;20140;-63
2022/03/02 12:12:58;;;;;;;62.03;6.75;;;20.60;99.40;;;;;;5006210;28;20119;-64
2022/03/02 12:15:27;;;;;;;53.28;6.43;;;20.50;99.40;;;;;;5009216;28;20056;-65
2022/03/02 12:18:06;;;;;;;59.30;7.43;;;20.50;99.40;;;;;;5004466;28;20108;-63
2022/03/02 12:20:34;;;;;;;60.25;6.15;;;20.50;99.40;;;;;;5010267;28;20045;-63
2022/03/02 12:23:02;;;;;;;54.28;7.00;;;20.40;99.30;;;;;;5010198;28;20511;-63
2022/03/02 12:25:29;;;;;;;69.85;9.02;;;20.40;99.30;;;;;;5010354;28;20013;-63
2022/03/02 12:28:04;;;;;;;54.15;7.32;;;20.40;99.30;;;;;;5010247;28;20048;-65
2022/03/02 12:30:36;;;;;;;55.78;6.97;;;20.50;99.30;;;;;;5009429;28;20034;-63
2022/03/02 12:33:03;;;;;;;56.28;6.15;;;20.40;99.20;;;;;;4998153;28;20041;-63
2022/03/02 12:35:30;;;;;;;58.08;6.80;;;20.40;99.10;;;;;;5011822;28;20018;-64
2022/03/02 12:37:59;;;;;;;46.45;5.80;;;20.50;99.00;;;;;;5011676;28;20111;-64
2022/03/02 12:40:29;;;;;;;46.03;6.63;;;20.40;98.90;;;;;;5009099;28;20053;-64
2022/03/02 12:42:56;;;;;;;50.55;6.22;;;20.50;98.80;;;;;;5010190;28;20510;-64
2022/03/02 12:45:24;;;;;;;49.95;7.45;;;20.50;98.80;;;;;;5010835;28;20373;-63
2022/03/02 12:47:51;;;;;;;47.58;6.53;;;20.50;98.80;;;;;;5000430;28;20026;-64